Time;durP1;ratioP1;P1;durP2;ratioP2;P2;SDS_P1;SDS_P2;PMS_P1;PMS_P2;Temp;Humidity;BMP_temperature;BMP_pressure;BME280_temperature;BME280_humidity;BME280_pressure;Samples;Min_cycle;Max_cycle;Signal;HPM_P1;HPM_P2
2022/09/06 00:00:41;;;;;;;5.72;3.55;;;;;;;19.37;82.22;101383.03;5281983;28;20025;-78
2022/09/06 00:03:13;;;;;;;7.35;3.85;;;;;;;19.52;82.99;101392.16;5283872;28;20031;-79
2022/09/06 00:05:44;;;;;;;7.17;4.27;;;;;;;19.68;82.32;101457.56;5283997;28;20032;-79
2022/09/06 00:08:15;;;;;;;7.57;3.50;;;;;;;19.38;82.12;101470.22;5283682;28;20303;-78
2022/09/06 00:10:47;;;;;;;6.90;3.97;;;;;;;19.24;82.92;101473.41;5283214;28;20082;-78
2022/09/06 00:13:20;;;;;;;4.50;3.53;;;;;;;19.20;82.52;101484.16;5283354;28;20039;-77
2022/09/06 00:15:51;;;;;;;7.53;4.45;;;;;;;19.05;83.07;101506.75;5283303;28;20080;-77
2022/09/06 00:18:23;;;;;;;5.13;3.40;;;;;;;18.95;83.56;101509.72;5283622;28;20086;-77
2022/09/06 00:20:54;;;;;;;6.80;3.57;;;;;;;19.08;84.60;101507.47;5283693;28;20060;-78
2022/09/06 00:23:25;;;;;;;6.83;4.23;;;;;;;18.98;84.22;101526.34;5283140;28;20062;-78
2022/09/06 00:26:04;;;;;;;8.40;3.93;;;;;;;18.94;84.60;101533.53;5283335;28;20047;-79
2022/09/06 00:28:36;;;;;;;5.40;4.20;;;;;;;18.94;86.24;101526.47;5282557;28;20046;-80
2022/09/06 00:31:16;;;;;;;9.27;4.43;;;;;;;18.90;84.82;101524.88;5283567;28;20044;-80
2022/09/06 00:33:48;;;;;;;7.60;4.40;;;;;;;18.81;84.23;101527.78;5283488;28;20025;-79
2022/09/06 00:36:21;;;;;;;6.43;4.47;;;;;;;18.71;84.98;101531.69;5266643;28;20472;-80
2022/09/06 00:38:52;;;;;;;4.72;3.75;;;;;;;18.86;85.41;101514.47;5264101;28;20483;-78
2022/09/06 00:41:24;;;;;;;6.17;4.17;;;;;;;18.85;86.29;101508.31;5260044;28;20029;-78
2022/09/06 00:43:55;;;;;;;6.07;4.27;;;;;;;18.88;87.14;101510.84;5276903;28;20033;-78
2022/09/06 00:46:29;;;;;;;5.77;5.17;;;;;;;18.84;88.28;101503.94;5260694;28;20036;-78
2022/09/06 00:49:12;;;;;;;6.53;5.15;;;;;;;19.01;88.38;101497.19;5262056;28;20465;-78
2022/09/06 00:51:43;;;;;;;8.25;4.90;;;;;;;19.12;88.15;101489.72;5261766;28;20032;-79
2022/09/06 00:54:15;;;;;;;5.40;4.37;;;;;;;19.20;87.50;101486.78;5261957;28;20033;-80
2022/09/06 00:56:47;;;;;;;7.17;4.77;;;;;;;18.95;88.06;101485.94;5261737;28;20053;-80
2022/09/06 00:59:18;;;;;;;7.45;4.55;;;;;;;19.02;88.12;101483.06;5260929;28;20033;-80
2022/09/06 01:01:50;;;;;;;6.10;4.80;;;;;;;19.11;88.18;101473.00;5262126;28;20098;-81
2022/09/06 01:04:22;;;;;;;6.27;4.67;;;;;;;19.24;88.17;101476.06;5261438;28;20097;-80
2022/09/06 01:07:31;;;;;;;8.93;4.47;;;;;;;19.11;87.71;101459.81;5265769;28;20370;-80
2022/09/06 01:10:40;;;;;;;6.38;4.82;;;;;;;19.08;87.84;101454.63;5286248;28;20017;-79
2022/09/06 01:13:33;;;;;;;6.38;5.10;;;;;;;18.93;89.07;101453.44;5261798;28;20476;-79
2022/09/06 01:16:12;;;;;;;7.18;4.25;;;;;;;19.09;88.25;101444.91;5261318;28;20024;-78
2022/09/06 01:18:58;;;;;;;6.85;4.53;;;;;;;18.94;89.52;101443.72;5264442;28;20095;-79
2022/09/06 01:21:43;;;;;;;6.03;4.60;;;;;;;18.75;90.12;101435.56;5261752;28;20041;-79
2022/09/06 01:24:51;;;;;;;6.25;5.07;;;;;;;18.62;91.21;101419.31;5261384;28;20033;-79
2022/09/06 01:28:01;;;;;;;9.27;5.28;;;;;;;18.72;90.75;101399.59;5261758;28;20472;-79
2022/09/06 01:30:39;;;;;;;8.02;4.93;;;;;;;18.79;90.80;101371.16;5260563;28;20128;-78
2022/09/06 01:33:48;;;;;;;7.40;4.70;;;;;;;18.77;90.36;101359.78;5261963;28;20073;-79
2022/09/06 01:36:25;;;;;;;6.60;4.72;;;;;;;18.85;89.79;101347.19;5261406;28;20036;-78
2022/09/06 01:38:57;;;;;;;5.93;4.38;;;;;;;18.82;89.05;101341.13;5263012;28;20033;-79
2022/09/06 01:41:29;;;;;;;5.83;4.77;;;;;;;18.84;88.66;101334.06;5265703;28;20043;-79
2022/09/06 01:44:00;;;;;;;8.38;4.60;;;;;;;18.72;88.61;101328.28;5266106;28;20063;-78
2022/09/06 01:46:41;;;;;;;7.33;5.57;;;;;;;18.73;89.75;101310.66;5264934;28;20077;-78
2022/09/06 01:49:37;;;;;;;5.32;4.53;;;;;;;18.43;90.56;101302.09;5265461;28;20075;-78
2022/09/06 01:52:17;;;;;;;7.32;4.68;;;;;;;18.43;90.54;101292.41;5265500;28;20025;-78
2022/09/06 01:55:08;;;;;;;9.18;5.10;;;;;;;18.48;90.77;101273.75;5265017;28;20036;-79
2022/09/06 01:57:54;;;;;;;7.00;4.93;;;;;;;18.38;91.28;101249.50;5266251;28;20449;-78
2022/09/06 02:00:26;;;;;;;8.73;4.85;;;;;;;18.20;91.37;101241.34;5275679;28;20029;-76
2022/09/06 02:03:12;;;;;;;6.93;4.97;;;;;;;18.04;91.88;101234.91;5269768;28;20092;-78
2022/09/06 02:05:47;;;;;;;7.47;5.63;;;;;;;17.88;92.19;101297.91;5265549;28;20155;-79
2022/09/06 02:08:28;;;;;;;5.80;4.55;;;;;;;17.97;92.55;101360.91;5265217;28;20059;-79
2022/09/06 02:11:06;;;;;;;7.65;4.90;;;;;;;17.83;93.09;101316.50;5265368;28;20080;-80
2022/09/06 02:13:43;;;;;;;7.00;5.28;;;;;;;18.00;94.48;101301.88;5265015;28;20114;-78
2022/09/06 02:16:20;;;;;;;6.97;5.35;;;;;;;17.83;93.67;101302.47;5280066;28;20123;-79
2022/09/06 02:18:58;;;;;;;14.40;5.50;;;;;;;18.04;92.25;101312.28;5265219;28;20036;-79
2022/09/06 02:21:33;;;;;;;6.72;4.95;;;;;;;18.07;92.57;101305.19;5265518;28;20036;-79
2022/09/06 02:24:09;;;;;;;4.95;4.25;;;;;;;18.08;93.20;101307.78;5264470;28;20085;-79
2022/09/06 02:26:42;;;;;;;10.38;5.75;;;;;;;18.10;93.23;101313.84;5264968;28;20036;-79
2022/09/06 02:29:15;;;;;;;6.00;5.03;;;;;;;17.90;92.78;101319.81;5265122;28;20508;-78
2022/09/06 02:31:53;;;;;;;6.70;5.38;;;;;;;17.87;93.11;101309.38;5264711;28;20044;-78
2022/09/06 02:34:25;;;;;;;7.93;4.70;;;;;;;17.78;93.80;101307.88;5264686;28;20033;-78
2022/09/06 02:36:57;;;;;;;6.13;5.13;;;;;;;17.84;93.89;101305.03;5263402;28;20254;-78
2022/09/06 02:39:28;;;;;;;8.77;6.03;;;;;;;17.75;94.29;101293.97;5264661;28;20033;-78
2022/09/06 02:42:00;;;;;;;5.60;4.67;;;;;;;17.97;93.63;101296.75;5264704;28;20029;-78
2022/09/06 02:44:31;;;;;;;6.45;5.55;;;;;;;17.73;93.96;101290.53;5265190;28;20116;-78
2022/09/06 02:47:03;;;;;;;7.80;5.87;;;;;;;17.64;94.93;101295.16;5264997;28;20127;-78
2022/09/06 02:49:34;;;;;;;6.60;5.57;;;;;;;17.65;94.85;101293.41;5280449;28;20044;-78
2022/09/06 02:52:06;;;;;;;6.77;5.43;;;;;;;17.86;94.52;101307.63;5281247;28;20137;-78
2022/09/06 02:54:37;;;;;;;9.10;5.60;;;;;;;17.90;93.92;101311.03;5262976;28;20040;-79
2022/09/06 02:57:08;;;;;;;6.00;5.40;;;;;;;17.95;93.69;101303.81;5264549;28;20025;-79
2022/09/06 02:59:40;;;;;;;6.97;5.13;;;;;;;17.95;93.26;101307.34;5264394;28;20047;-78
2022/09/06 03:02:11;;;;;;;7.10;5.60;;;;;;;17.99;93.25;101316.00;5279921;28;20091;-79
2022/09/06 03:04:42;;;;;;;6.77;5.37;;;;;;;17.97;93.66;101315.22;5264199;28;20368;-79
2022/09/06 03:07:14;;;;;;;7.37;5.40;;;;;;;18.12;93.27;101319.91;5263029;28;20474;-78
2022/09/06 03:09:45;;;;;;;8.53;5.83;;;;;;;18.05;93.71;101315.78;5264004;28;20418;-79
2022/09/06 03:12:16;;;;;;;7.33;5.53;;;;;;;18.07;94.23;101316.59;5264202;28;20064;-79
2022/09/06 03:14:48;;;;;;;6.83;5.90;;;;;;;18.07;93.52;101313.97;5262645;28;20025;-78
2022/09/06 03:17:19;;;;;;;7.47;5.37;;;;;;;18.15;93.52;101313.69;5263809;28;20040;-79
2022/09/06 03:19:51;;;;;;;9.33;6.03;;;;;;;17.99;93.97;101310.72;5262417;28;20057;-79
2022/09/06 03:22:22;;;;;;;7.17;5.70;;;;;;;17.89;94.04;101311.94;5263547;28;20116;-72
2022/09/06 03:24:53;;;;;;;5.80;5.07;;;;;;;17.99;93.97;101302.81;5263256;28;20067;-78
2022/09/06 03:27:25;;;;;;;9.63;6.13;;;;;;;17.79;94.30;101307.00;5264020;28;20091;-78
2022/09/06 03:29:56;;;;;;;5.87;5.30;;;;;;;17.71;94.80;101313.41;5263809;28;20028;-78
2022/09/06 03:32:27;;;;;;;10.47;6.17;;;;;;;17.83;94.50;101308.59;5263873;28;20484;-78
2022/09/06 03:34:59;;;;;;;5.93;5.23;;;;;;;17.89;93.85;101311.94;5263309;28;20120;-78
2022/09/06 03:37:30;;;;;;;5.83;4.83;;;;;;;17.74;94.33;101311.56;5263596;28;20029;-78
2022/09/06 03:40:05;;;;;;;5.73;5.20;;;;;;;17.80;94.47;101313.97;5263338;28;20055;-79
2022/09/06 03:42:37;;;;;;;6.15;5.30;;;;;;;17.77;94.34;101307.94;5263281;28;20469;-78
2022/09/06 03:45:08;;;;;;;6.37;5.23;;;;;;;17.75;94.04;101309.78;5262157;28;20031;-79
2022/09/06 03:47:40;;;;;;;6.65;5.78;;;;;;;17.68;94.45;101302.06;5263094;28;20044;-79
2022/09/06 03:50:11;;;;;;;10.23;6.27;;;;;;;17.73;94.58;101307.19;5261797;28;20199;-79
2022/09/06 03:52:43;;;;;;;7.50;5.77;;;;;;;17.56;94.97;101305.13;5262854;28;20029;-78
2022/09/06 03:55:14;;;;;;;8.77;5.93;;;;;;;17.52;94.40;101303.50;5262299;28;20037;-78
2022/09/06 03:57:45;;;;;;;8.57;6.13;;;;;;;17.53;94.61;101307.00;5261439;28;20460;-79
2022/09/06 04:00:17;;;;;;;6.87;6.17;;;;;;;17.51;94.76;101317.59;5278241;28;20421;-79
2022/09/06 04:02:48;;;;;;;8.80;5.70;;;;;;;17.45;94.69;101310.78;5262902;28;20029;-79
2022/09/06 04:05:19;;;;;;;6.77;6.07;;;;;;;17.36;94.78;101318.97;5262796;28;20039;-78
2022/09/06 04:07:51;;;;;;;7.77;6.50;;;;;;;17.33;94.78;101318.22;5262711;28;20033;-78
2022/09/06 04:10:22;;;;;;;6.97;6.27;;;;;;;17.49;95.10;101327.34;5262497;28;20460;-78
2022/09/06 04:12:53;;;;;;;6.67;5.97;;;;;;;17.27;94.99;101321.91;5262774;28;20043;-79
2022/09/06 04:15:25;;;;;;;6.83;6.13;;;;;;;17.30;95.04;101329.69;5262348;28;20033;-78
2022/09/06 04:17:57;;;;;;;8.93;6.47;;;;;;;17.09;95.80;101336.50;5261375;28;20131;-79
2022/09/06 04:20:28;;;;;;;7.10;5.97;;;;;;;17.20;96.10;101329.13;5261317;28;20032;-78
2022/09/06 04:22:59;;;;;;;9.27;5.90;;;;;;;17.13;95.99;101333.75;5262405;28;20139;-77
2022/09/06 04:25:31;;;;;;;10.07;7.07;;;;;;;16.94;96.63;101332.59;5265387;28;20025;-79
2022/09/06 04:28:03;;;;;;;7.13;6.40;;;;;;;16.97;96.35;101340.41;5269804;28;20040;-79
2022/09/06 04:30:34;;;;;;;9.02;7.35;;;;;;;16.94;96.23;101335.22;5271017;28;20037;-78
2022/09/06 04:33:05;;;;;;;10.07;7.10;;;;;;;17.00;96.57;101339.44;5271116;28;20036;-79
2022/09/06 04:35:37;;;;;;;9.53;7.40;;;;;;;16.99;96.20;101341.22;5266851;28;20057;-79
2022/09/06 04:38:08;;;;;;;8.47;7.57;;;;;;;16.79;96.50;101333.88;5262099;28;20029;-79
2022/09/06 04:40:39;;;;;;;9.73;7.03;;;;;;;16.82;96.70;101338.19;5262527;28;20338;-79
2022/09/06 04:43:10;;;;;;;9.97;7.10;;;;;;;16.85;96.72;101338.97;5261255;28;20116;-79
2022/09/06 04:45:43;;;;;;;9.33;7.93;;;;;;;16.87;96.75;101338.94;5262075;28;20102;-79
2022/09/06 04:48:14;;;;;;;;;;;;;;;16.88;94.89;101348.56;5262273;28;20194;-79
2022/09/06 04:50:46;;;;;;;10.35;7.97;;;;;;;16.80;96.12;101353.19;5261878;28;19921;-78
2022/09/06 04:53:17;;;;;;;11.67;8.43;;;;;;;16.70;96.34;101344.69;5272983;28;20052;-78
2022/09/06 04:55:48;;;;;;;11.30;7.27;;;;;;;16.81;96.72;101339.97;5282945;28;20033;-79
2022/09/06 04:58:20;;;;;;;9.13;7.93;;;;;;;16.79;96.79;101347.03;5283061;28;20047;-79
2022/09/06 05:00:51;;;;;;;10.73;8.30;;;;;;;16.79;97.15;101347.03;5281621;28;20187;-80
2022/09/06 05:03:23;;;;;;;9.27;8.27;;;;;;;16.63;97.16;101337.88;5281674;28;20036;-80
2022/09/06 05:06:03;;;;;;;14.90;8.77;;;;;;;16.70;97.36;101334.16;5282473;28;20406;-79
2022/09/06 05:08:36;;;;;;;9.82;8.93;;;;;;;16.60;97.56;101336.19;5282588;28;20036;-79
2022/09/06 05:11:09;;;;;;;10.32;8.95;;;;;;;16.60;97.95;101330.94;5281442;28;20079;-79
2022/09/06 05:13:41;;;;;;;9.65;8.02;;;;;;;16.71;98.10;101325.34;5284483;28;20536;-79
2022/09/06 05:16:12;;;;;;;9.63;8.00;;;;;;;16.69;98.10;101330.66;5285386;28;20135;-79
2022/09/06 05:18:44;;;;;;;9.50;8.40;;;;;;;16.74;98.11;101326.13;5286837;28;20090;-77
2022/09/06 05:21:15;;;;;;;12.57;9.10;;;;;;;16.68;98.27;101330.69;5288436;28;20124;-77
2022/09/06 05:23:47;;;;;;;9.97;7.70;;;;;;;16.78;98.03;101338.28;5300649;28;20059;-77
2022/09/06 05:26:18;;;;;;;9.93;8.93;;;;;;;16.71;97.85;101331.47;5293992;28;20127;-78
2022/09/06 05:28:49;;;;;;;12.30;9.20;;;;;;;16.73;98.14;101336.72;5287159;28;20056;-78
2022/09/06 05:31:29;;;;;;;9.50;8.40;;;;;;;16.74;97.82;101341.94;5286346;28;20059;-79
2022/09/06 05:34:01;;;;;;;11.50;8.00;;;;;;;16.76;97.65;101337.47;5286673;28;20024;-78
2022/09/06 05:36:33;;;;;;;12.83;7.90;;;;;;;16.82;97.91;101341.66;5286274;28;20089;-79
2022/09/06 05:39:04;;;;;;;9.93;8.43;;;;;;;16.80;97.51;101347.91;5286680;28;20158;-79
2022/09/06 05:41:35;;;;;;;12.13;8.13;;;;;;;16.87;97.69;101339.81;5286031;28;20072;-78
2022/09/06 05:44:07;;;;;;;10.67;7.13;;;;;;;16.86;97.37;101346.00;5286502;28;20033;-78
2022/09/06 05:46:42;;;;;;;8.80;7.73;;;;;;;16.75;97.74;101348.91;5285987;28;20035;-78
2022/09/06 05:49:14;;;;;;;11.82;8.32;;;;;;;16.80;97.25;101345.28;5286346;28;20483;-79
2022/09/06 05:51:50;;;;;;;11.07;8.40;;;;;;;16.74;97.31;101341.03;5285808;28;20067;-79
2022/09/06 05:54:22;;;;;;;11.60;8.95;;;;;;;16.78;97.79;101343.53;5285504;28;20511;-79
2022/09/06 05:56:53;;;;;;;10.10;8.73;;;;;;;16.91;97.86;101345.84;5286152;28;20095;-79
2022/09/06 05:59:25;;;;;;;15.73;7.77;;;;;;;16.99;96.99;101346.47;5285923;28;20047;-78
2022/09/06 06:01:56;;;;;;;9.77;7.75;;;;;;;17.01;96.96;101354.34;5284736;28;20218;-78
2022/09/06 06:04:28;;;;;;;10.87;7.13;;;;;;;17.04;97.11;101335.81;5286206;28;20077;-79
2022/09/06 06:06:59;;;;;;;10.13;7.80;;;;;;;17.07;96.57;101344.47;5284568;28;20068;-79
2022/09/06 06:09:30;;;;;;;13.33;7.00;;;;;;;17.16;95.74;101350.34;5284664;28;20032;-78
2022/09/06 06:12:02;;;;;;;11.17;7.27;;;;;;;17.17;95.99;101350.31;5287086;28;20131;-79
2022/09/06 06:14:33;;;;;;;11.05;7.10;;;;;;;17.21;95.58;101345.78;5302429;28;20044;-77
2022/09/06 06:17:05;;;;;;;9.73;7.27;;;;;;;17.27;95.62;101342.97;5300315;28;20041;-79
2022/09/06 06:19:36;;;;;;;7.97;7.17;;;;;;;17.36;96.01;101344.47;5286851;28;20024;-79
2022/09/06 06:22:08;;;;;;;8.67;6.93;;;;;;;17.44;95.32;101350.34;5286285;28;20071;-79
2022/09/06 06:24:39;;;;;;;8.17;6.73;;;;;;;17.50;94.32;101352.78;5284230;28;20040;-79
2022/09/06 06:27:10;;;;;;;12.27;7.23;;;;;;;17.55;94.78;101339.44;5284041;28;20539;-79
2022/09/06 06:29:42;;;;;;;7.73;6.47;;;;;;;17.55;93.80;101340.31;5285660;28;20037;-79
2022/09/06 06:32:13;;;;;;;8.87;6.60;;;;;;;17.65;94.22;101332.97;5285307;28;20523;-78
2022/09/06 06:34:44;;;;;;;10.97;6.70;;;;;;;17.72;93.33;101341.53;5285288;28;20459;-79
2022/09/06 06:37:16;;;;;;;8.80;6.27;;;;;;;17.72;92.29;101337.09;5285300;28;20646;-79
2022/09/06 06:39:47;;;;;;;6.37;5.77;;;;;;;17.80;92.92;101336.84;5283499;28;20039;-78
2022/09/06 06:42:19;;;;;;;7.13;5.57;;;;;;;17.86;92.62;101339.28;5285366;28;20028;-77
2022/09/06 06:44:52;;;;;;;10.53;6.60;;;;;;;17.90;92.80;101340.91;5284919;28;20063;-78
2022/09/06 06:47:23;;;;;;;7.85;5.30;;;;;;;17.97;93.30;101337.16;5284868;28;20032;-79
2022/09/06 06:49:54;;;;;;;7.27;5.20;;;;;;;18.03;93.19;101336.94;5285017;28;20486;-77
2022/09/06 06:52:26;;;;;;;9.97;5.70;;;;;;;18.12;92.07;101338.38;5285067;28;20020;-78
2022/09/06 06:54:57;;;;;;;7.57;5.27;;;;;;;18.26;90.51;101337.03;5284325;28;20468;-78
2022/09/06 06:57:29;;;;;;;7.63;4.70;;;;;;;18.31;91.11;101335.09;5284550;28;20020;-78
2022/09/06 07:00:00;;;;;;;6.60;4.73;;;;;;;18.38;89.19;101342.72;5284476;28;20031;-77
2022/09/06 07:02:32;;;;;;;10.97;5.43;;;;;;;18.48;89.24;101347.66;5284552;28;20028;-79
2022/09/06 07:05:03;;;;;;;9.33;5.13;;;;;;;18.54;87.50;101339.53;5284937;28;20043;-77
2022/09/06 07:07:35;;;;;;;5.10;4.53;;;;;;;18.54;88.63;101327.19;5283084;28;20309;-79
2022/09/06 07:10:06;;;;;;;8.90;4.70;;;;;;;18.67;88.47;101332.00;5284138;28;20032;-79
2022/09/06 07:12:38;;;;;;;5.47;4.40;;;;;;;18.76;89.54;101334.31;5284820;28;20422;-77
2022/09/06 07:15:09;;;;;;;8.77;4.33;;;;;;;18.77;87.77;101322.81;5284770;28;20841;-77
2022/09/06 07:17:41;;;;;;;6.20;4.17;;;;;;;18.88;87.30;101328.56;5283283;28;20029;-78
2022/09/06 07:20:12;;;;;;;10.30;4.20;;;;;;;18.94;87.77;101328.31;5284243;28;20035;-77
2022/09/06 07:22:44;;;;;;;6.77;4.03;;;;;;;19.03;87.40;101336.81;5284266;28;20043;-78
2022/09/06 07:25:15;;;;;;;6.60;4.10;;;;;;;19.20;86.63;101331.72;5284119;28;20029;-78
2022/09/06 07:27:46;;;;;;;6.97;4.50;;;;;;;19.26;83.94;101334.13;5283864;28;20029;-77
2022/09/06 07:30:18;;;;;;;9.37;4.73;;;;;;;19.37;85.06;101340.75;5284684;28;20494;-77
2022/09/06 07:32:50;;;;;;;7.05;4.18;;;;;;;19.42;84.18;101331.72;5283060;28;20039;-77
2022/09/06 07:35:21;;;;;;;6.43;3.53;;;;;;;19.57;82.85;101335.50;5284381;28;20043;-77
2022/09/06 07:37:54;;;;;;;8.93;3.53;;;;;;;19.62;82.19;101337.94;5284082;28;20119;-77
2022/09/06 07:40:28;;;;;;;5.80;3.47;;;;;;;19.77;81.65;101337.34;5283929;28;20390;-77
2022/09/06 07:42:59;;;;;;;4.82;3.22;;;;;;;19.88;80.29;101344.81;5284028;28;20061;-77
2022/09/06 07:45:34;;;;;;;6.17;3.27;;;;;;;19.97;81.34;101344.41;5283794;28;20138;-77
2022/09/06 07:48:06;;;;;;;5.82;3.40;;;;;;;20.10;78.64;101344.75;5283763;28;20024;-77
2022/09/06 07:50:37;;;;;;;6.47;3.67;;;;;;;20.19;79.34;101343.50;5283789;28;20024;-77
2022/09/06 07:53:09;;;;;;;5.27;3.30;;;;;;;20.39;78.68;101335.50;5284544;28;20460;-76
2022/09/06 07:55:40;;;;;;;8.40;3.10;;;;;;;20.49;78.84;101335.94;5300683;28;20114;-77
2022/09/06 07:58:12;;;;;;;8.17;3.20;;;;;;;20.63;79.51;101337.13;5297820;28;20483;-76
2022/09/06 08:00:43;;;;;;;5.83;2.90;;;;;;;20.74;75.59;101330.41;5283760;28;20029;-76
2022/09/06 08:03:14;;;;;;;4.67;2.53;;;;;;;20.82;76.38;101322.09;5283450;28;20044;-76
2022/09/06 08:05:49;;;;;;;6.13;2.67;;;;;;;20.96;74.59;101326.72;5283645;28;20036;-77
2022/09/06 08:08:21;;;;;;;4.40;3.00;;;;;;;21.07;76.16;101324.41;5281754;28;20032;-76
2022/09/06 08:10:52;;;;;;;4.63;2.53;;;;;;;21.33;73.91;101324.94;5282961;28;20056;-76
2022/09/06 08:13:23;;;;;;;8.93;2.97;;;;;;;21.51;72.69;101320.56;5281397;28;20387;-76
2022/09/06 08:16:07;;;;;;;5.50;2.22;;;;;;;21.51;70.51;101327.66;5282528;28;20044;-76
2022/09/06 08:18:38;;;;;;;5.53;2.40;;;;;;;21.38;71.86;101325.59;5282890;28;20515;-76
2022/09/06 08:21:14;;;;;;;7.40;2.20;;;;;;;21.39;70.42;101319.34;5282805;28;20116;-75
2022/09/06 08:23:47;;;;;;;3.63;2.00;;;;;;;21.45;71.00;101334.09;5282439;28;20125;-76
2022/09/06 08:26:21;;;;;;;4.20;2.50;;;;;;;21.46;69.44;101335.81;5282563;28;20193;-75
2022/09/06 08:28:54;;;;;;;6.07;2.50;;;;;;;21.46;67.80;101333.16;5282723;28;20043;-75
2022/09/06 08:31:28;;;;;;;17.45;2.80;;;;;;;21.38;69.94;101344.16;5282674;28;20097;-76
2022/09/06 08:34:00;;;;;;;3.60;2.13;;;;;;;21.36;70.19;101342.50;5282462;28;20054;-76
2022/09/06 08:36:32;;;;;;;4.65;2.60;;;;;;;21.42;69.73;101344.88;5282619;28;20068;-76
2022/09/06 08:39:05;;;;;;;7.80;3.03;;;;;;;21.57;71.16;101330.84;5282557;28;20029;-75
2022/09/06 08:41:55;;;;;;;4.03;2.40;;;;;;;21.70;71.78;101333.75;5282678;28;20170;-75
2022/09/06 08:44:38;;;;;;;4.20;2.83;;;;;;;21.79;68.99;101335.94;5282980;28;20035;-75
2022/09/06 08:47:12;;;;;;;3.78;2.58;;;;;;;21.90;69.00;101324.78;5282956;28;20483;-75
2022/09/06 08:49:55;;;;;;;6.53;3.05;;;;;;;21.99;69.01;101331.38;5282697;28;20060;-76
2022/09/06 08:53:01;;;;;;;5.78;2.42;;;;;;;22.18;67.38;101341.91;5281757;28;20028;-74
2022/09/06 08:55:47;;;;;;;5.13;2.50;;;;;;;22.19;67.06;101328.56;5282176;28;20040;-76
2022/09/06 08:58:54;;;;;;;3.85;2.45;;;;;;;22.31;67.54;101331.53;5282128;28;20063;-77
2022/09/06 09:01:38;;;;;;;3.90;2.55;;;;;;;22.43;65.53;101345.94;5282087;28;20039;-75
2022/09/06 09:04:14;;;;;;;5.57;2.72;;;;;;;22.41;64.62;101332.72;5282496;28;20039;-75
2022/09/06 09:06:50;;;;;;;4.93;2.30;;;;;;;22.76;65.11;101335.28;5282875;28;20051;-76
2022/09/06 09:09:21;;;;;;;2.83;2.10;;;;;;;23.37;63.67;101332.78;5282402;28;20029;-76
2022/09/06 09:11:54;;;;;;;3.45;2.50;;;;;;;24.06;61.10;101328.69;5282801;28;20051;-76
2022/09/06 09:14:34;;;;;;;11.23;2.45;;;;;;;24.51;58.80;101324.13;5282233;28;20046;-76
2022/09/06 09:17:15;;;;;;;4.95;2.38;;;;;;;24.88;57.16;101327.16;5282551;28;20035;-76
2022/09/06 09:19:47;;;;;;;5.47;2.45;;;;;;;24.80;56.04;101318.78;5282509;28;20063;-76
2022/09/06 09:22:19;;;;;;;9.80;2.78;;;;;;;25.21;57.21;101314.38;5281974;28;20064;-76
2022/09/06 09:24:51;;;;;;;5.25;2.17;;;;;;;25.52;53.75;101315.88;5280477;28;20044;-77
2022/09/06 09:27:25;;;;;;;4.68;2.55;;;;;;;25.96;55.50;101316.47;5282219;28;20032;-76
2022/09/06 09:30:00;;;;;;;5.25;2.60;;;;;;;26.57;52.03;101322.84;5283002;28;20099;-77
2022/09/06 09:32:40;;;;;;;8.02;2.45;;;;;;;26.66;51.83;101325.84;5281783;28;20040;-77
2022/09/06 09:35:35;;;;;;;3.35;2.40;;;;;;;27.01;50.89;101338.47;5284177;28;20032;-77
2022/09/06 09:38:17;;;;;;;6.50;2.47;;;;;;;26.77;50.71;101327.75;5299560;28;20054;-77
2022/09/06 09:41:00;;;;;;;4.63;2.65;;;;;;;26.57;49.97;101338.88;5282747;28;20372;-76
2022/09/06 09:43:57;;;;;;;8.65;3.10;;;;;;;27.04;51.63;101332.88;5282561;28;20037;-77
2022/09/06 09:46:34;;;;;;;5.10;2.38;;;;;;;26.78;49.83;101324.13;5282298;28;20063;-77
2022/09/06 09:49:26;;;;;;;14.55;3.78;;;;;;;26.79;49.27;101323.13;5282308;28;20033;-76
2022/09/06 09:52:05;;;;;;;7.25;3.25;;;;;;;27.25;49.54;101320.56;5282370;28;20040;-77
2022/09/06 09:54:40;;;;;;;4.75;2.92;;;;;;;27.31;47.99;101311.28;5281380;28;20060;-77
2022/09/06 09:57:18;;;;;;;5.05;2.67;;;;;;;28.46;49.01;101308.66;5282114;28;20035;-77
2022/09/06 10:00:02;;;;;;;4.30;2.58;;;;;;;28.94;47.22;101308.34;5283813;28;20032;-77
2022/09/06 10:02:39;;;;;;;7.60;2.55;;;;;;;29.04;47.20;101308.44;5285782;28;20079;-77
2022/09/06 10:05:10;;;;;;;5.03;2.40;;;;;;;29.92;44.68;101314.53;5286584;28;20107;-77
2022/09/06 10:07:52;;;;;;;5.13;2.53;;;;;;;30.41;43.03;101317.44;5286385;28;20123;-77
2022/09/06 10:10:27;;;;;;;4.50;2.65;;;;;;;29.94;41.91;101326.00;5285734;28;20052;-77
2022/09/06 10:13:06;;;;;;;4.32;2.60;;;;;;;30.29;42.19;101343.56;5286072;28;20032;-77
2022/09/06 10:15:39;;;;;;;6.10;2.95;;;;;;;30.62;43.68;101330.81;5285973;28;20033;-77
2022/09/06 10:18:19;;;;;;;4.93;2.55;;;;;;;31.11;41.97;101337.19;5285646;28;20035;-78
2022/09/06 10:20:59;;;;;;;6.10;2.95;;;;;;;31.02;40.64;101333.47;5285620;28;20460;-77
2022/09/06 10:23:58;;;;;;;5.35;3.00;;;;;;;31.18;40.78;101332.06;5285558;28;20040;-78
2022/09/06 10:26:38;;;;;;;8.82;3.47;;;;;;;30.45;40.48;101338.56;5285628;28;20483;-78
2022/09/06 10:29:13;;;;;;;8.27;3.30;;;;;;;30.77;40.88;101342.91;5285605;28;20555;-78
2022/09/06 10:31:56;;;;;;;19.05;4.07;;;;;;;30.78;41.52;101341.06;5285368;28;20028;-78
2022/09/06 10:34:39;;;;;;;7.55;2.90;;;;;;;30.46;43.06;101326.81;5285193;28;20111;-78
2022/09/06 10:37:35;;;;;;;6.68;3.50;;;;;;;31.22;39.91;101331.66;5285526;28;20107;-77
2022/09/06 10:40:09;;;;;;;6.55;3.13;;;;;;;30.46;39.66;101334.91;5283908;28;20031;-78
2022/09/06 10:42:53;;;;;;;7.95;3.20;;;;;;;30.81;40.99;101330.03;5285120;28;20025;-77
2022/09/06 10:46:01;;;;;;;5.03;3.03;;;;;;;31.00;40.38;101322.00;5284785;28;20082;-77
2022/09/06 10:48:40;;;;;;;9.55;3.90;;;;;;;31.02;41.11;101311.09;5284890;28;20036;-78
2022/09/06 10:51:26;;;;;;;5.80;3.85;;;;;;;30.77;40.26;101323.19;5285442;28;20138;-78
2022/09/06 10:54:07;;;;;;;6.55;3.25;;;;;;;30.21;42.00;101319.19;5284276;28;20446;-77
2022/09/06 10:56:45;;;;;;;9.18;3.40;;;;;;;30.45;40.77;101316.22;5285105;28;20128;-78
2022/09/06 10:59:24;;;;;;;8.77;3.08;;;;;;;30.66;44.43;101318.81;5285078;28;20367;-78
2022/09/06 11:02:11;;;;;;;5.93;3.72;;;;;;;30.81;40.66;101321.94;5284780;28;20364;-78
2022/09/06 11:04:45;;;;;;;10.20;3.58;;;;;;;31.86;38.27;101323.94;5283584;28;20436;-78
2022/09/06 11:07:27;;;;;;;6.45;3.45;;;;;;;32.99;37.69;101323.84;5284450;28;20103;-78
2022/09/06 11:10:19;;;;;;;10.57;3.75;;;;;;;32.93;35.69;101329.91;5284594;28;20032;-78
2022/09/06 11:13:02;;;;;;;8.40;3.83;;;;;;;32.56;36.45;101325.41;5284052;28;20369;-77
2022/09/06 11:15:50;;;;;;;8.07;3.80;;;;;;;32.13;37.34;101322.31;5288942;28;20082;-77
2022/09/06 11:18:31;;;;;;;6.65;4.03;;;;;;;31.95;38.22;101333.00;5290359;28;20107;-78
2022/09/06 11:21:39;;;;;;;6.57;3.65;;;;;;;31.03;38.50;101334.34;5284564;28;20059;-78
2022/09/06 11:24:15;;;;;;;6.18;3.47;;;;;;;30.38;37.87;101350.00;5283473;28;20118;-77
2022/09/06 11:27:15;;;;;;;5.53;3.15;;;;;;;30.62;38.38;101350.50;5282686;28;20079;-78
2022/09/06 11:29:55;;;;;;;9.32;3.50;;;;;;;30.87;38.15;101349.16;5283227;28;20065;-78
2022/09/06 11:32:29;;;;;;;7.53;3.55;;;;;;;32.12;40.87;101334.97;5283977;28;20063;-79
2022/09/06 11:35:06;;;;;;;12.25;3.80;;;;;;;32.41;35.81;101339.41;5282649;28;20102;-78
2022/09/06 11:37:43;;;;;;;7.60;3.75;;;;;;;32.02;37.48;101344.88;5284062;28;20105;-78
2022/09/06 11:40:21;;;;;;;8.27;4.10;;;;;;;33.13;37.25;101344.09;5283914;28;20428;-79
2022/09/06 11:42:53;;;;;;;8.93;3.33;;;;;;;33.16;38.27;101341.09;5283341;28;20089;-79
2022/09/06 11:45:41;;;;;;;9.95;3.40;;;;;;;33.37;33.71;101341.63;5283344;28;20539;-79
2022/09/06 11:48:33;;;;;;;4.88;3.35;;;;;;;33.02;34.57;101334.34;5283650;28;20036;-79
2022/09/06 11:51:09;;;;;;;5.70;3.17;;;;;;;33.92;33.45;101326.19;5282057;28;20032;-78
2022/09/06 11:53:47;;;;;;;5.35;3.17;;;;;;;34.28;33.72;101326.91;5283000;28;20028;-80
2022/09/06 11:56:46;;;;;;;7.78;3.30;;;;;;;35.93;32.12;101319.84;5283364;28;20107;-79
2022/09/06 11:59:20;;;;;;;4.38;3.40;;;;;;;35.13;30.59;101317.84;5283392;28;20103;-79
2022/09/06 12:01:54;;;;;;;10.38;3.60;;;;;;;34.23;32.25;101314.88;5283246;28;20059;-78
2022/09/06 12:05:00;;;;;;;5.45;3.55;;;;;;;34.83;32.56;101331.00;5283960;28;20070;-79